LOWLLOWI

Guest
Details From LOWL - Linz Hoersching
To LOWI - Innsbruck Kranebitten
Flight Number -
Tags generated
Created
Modified
Stats Distance 129 nm / 239 km
Max Altitude 16,500 ft / 5,029 m
Waypoints 3
Social Downloads 2
Likes 0
Share VATSIM

Download

Looking for another format? Having issues loading an existing format? Contact us
Advertisement - Login to hide

Notes

Basic altitude profile: - Ascent Rate: 2500ft/min - Ascent Speed: 250kts - Cruise Altitude: 220ft - Cruise Speed: 420kts - Descent Rate: 1500ft/min - Descent Speed: 250kts Options: - Use NATs: yes - Use PACOTS: yes - Use low airways: no - Use high airways: yes

Route

LOWL MORED LOWI

ID Type Via Altitude Latitude Longitude Leg Dist Tot Dist Heading (true) Name
O LOWL APT - 0 ft / 0 m 48.23322˚ 14.18751˚ - 0 nm - Linz Hoersching
MORED FIX - 16,500 ft / 5,029 m 47.87635˚ 13.01546˚ 51 nm 51 nm 246° / 245° -
O LOWI APT - 0 ft / 0 m 47.26023˚ 11.34397˚ 77 nm 128 nm 242° / 241° Innsbruck Kranebitten

Altitude Profile

Advertisement - Login to hide

LOWL

Details ICAO LOWL (LNZ)
Name Linz Hoersching
Region Austria
Timezone Europe/Vienna (UTC+2.0)
Stats Elevation 978 ft / 298 m (AMSL)
Location 48.233219° 14.187513°
Runways 1
Magnetic Variation 3.780° E

METAR

LOWL 262350Z AUTO VRB02KT 9999 NSC 17/13 Q1021

Decode

TAF

TAF LOWL 262315Z 2700/2724 09004KT CAVOK TX28/2714Z TN13/2703Z TEMPO 2708/2717 09010KT 9999 FEW050 SCT300

Decode

Departure Runways

ID Width Length Bearing (true) Bearing (mag) Surface Threshold Offset Overrun Length
09 197 ft / 60 m 9,802 ft / 2,988 m 86.49° 82.71° Asphalt 820 ft / 250 m 0 ft / 0 m
27 197 ft / 60 m 9,802 ft / 2,988 m 266.52° 262.74° Asphalt 492 ft / 150 m 0 ft / 0 m

LOWI

Details ICAO LOWI (INN)
Name Innsbruck Kranebitten
Region Austria
Timezone Europe/Vienna (UTC+2.0)
Stats Elevation 1,906 ft / 581 m (AMSL)
Location 47.260226° 11.343967°
Runways 1
Magnetic Variation 3.072° E

METAR

LOWI 262350Z AUTO 36002KT 9999 FEW070 17/13 Q1022

Decode

TAF

TAF LOWI 262315Z 2700/2724 27004KT CAVOK TX26/2713Z TN14/2704Z BECMG 2709/2711 09006KT 9999 FEW070 BKN300 TEMPO 2714/2718 09013KT SCT070 FEW070CB PROB30 TEMPO 2715/2719 27015G25KT TSRA SCT060CB BKN080 BECMG 2718/2720 VRB02KT CAVOK

Decode

Destination Runways

ID Width Length Bearing (true) Bearing (mag) Surface Threshold Offset Overrun Length
08 148 ft / 45 m 6,545 ft / 1,995 m 81.02° 77.95° Asphalt 338 ft / 103 m 0 ft / 0 m
26 148 ft / 45 m 6,545 ft / 1,995 m 261.04° 257.97° Asphalt 0 ft / 0 m 0 ft / 0 m

Approach Navaids

Runway Type Ident Frequency Range Bearing (true) Bearing (mag) Slope Elevation
26 Localiser OEV 111.10 MHz 27 nm / 50 km 256.00° 252.93° - 1,906 ft / 581 m (AMSL)
26 Localiser OEJ 109.70 MHz 30 nm / 56 km 69.00° 65.93° - 1,906 ft / 581 m (AMSL)
26 Glidescope OEV 111.10 MHz 18 nm / 33 km 256.00° 252.93° 3.80° 1,911 ft / 582 m (AMSL)
26 DME OEJ 109.70 MHz 30 nm / 56 km - - - 1,906 ft / 581 m (AMSL)
26 DME OEV 111.10 MHz 27 nm / 50 km - - - 1,911 ft / 582 m (AMSL)

Popular Alternatives